sensor_id;sensor_type;location;lat;lon;timestamp;temperature;humidity
6377;DHT22;3221;48.858;10.128;2023-05-10T00:01:56;14.70;99.90
6377;DHT22;3221;48.858;10.128;2023-05-10T00:04:23;14.60;99.90
6377;DHT22;3221;48.858;10.128;2023-05-10T00:06:54;14.50;99.90
6377;DHT22;3221;48.858;10.128;2023-05-10T00:09:21;14.70;99.90
6377;DHT22;3221;48.858;10.128;2023-05-10T00:11:48;14.70;99.90
6377;DHT22;3221;48.858;10.128;2023-05-10T00:14:15;14.60;99.90
6377;DHT22;3221;48.858;10.128;2023-05-10T00:16:41;14.60;99.90
6377;DHT22;3221;48.858;10.128;2023-05-10T00:19:08;14.60;99.90
6377;DHT22;3221;48.858;10.128;2023-05-10T00:21:35;14.60;99.90
6377;DHT22;3221;48.858;10.128;2023-05-10T00:24:02;14.70;99.90
6377;DHT22;3221;48.858;10.128;2023-05-10T00:26:29;14.50;99.90
6377;DHT22;3221;48.858;10.128;2023-05-10T00:28:56;14.40;99.90
6377;DHT22;3221;48.858;10.128;2023-05-10T00:31:23;14.40;99.90
6377;DHT22;3221;48.858;10.128;2023-05-10T00:33:50;14.40;99.90
6377;DHT22;3221;48.858;10.128;2023-05-10T00:36:17;14.40;99.90
6377;DHT22;3221;48.858;10.128;2023-05-10T00:38:44;14.40;99.90
6377;DHT22;3221;48.858;10.128;2023-05-10T00:41:10;14.30;99.90
6377;DHT22;3221;48.858;10.128;2023-05-10T00:43:39;14.40;99.90
6377;DHT22;3221;48.858;10.128;2023-05-10T00:46:06;14.30;99.90
6377;DHT22;3221;48.858;10.128;2023-05-10T00:48:33;14.40;99.90
6377;DHT22;3221;48.858;10.128;2023-05-10T00:51:01;14.60;99.90
6377;DHT22;3221;48.858;10.128;2023-05-10T00:53:31;14.40;99.90
6377;DHT22;3221;48.858;10.128;2023-05-10T00:55:59;14.30;99.90
6377;DHT22;3221;48.858;10.128;2023-05-10T00:58:27;14.40;99.90
6377;DHT22;3221;48.858;10.128;2023-05-10T01:00:57;14.40;99.90
6377;DHT22;3221;48.858;10.128;2023-05-10T01:03:25;14.50;99.90
6377;DHT22;3221;48.858;10.128;2023-05-10T01:05:52;14.50;99.90
6377;DHT22;3221;48.858;10.128;2023-05-10T01:08:19;14.40;99.90
6377;DHT22;3221;48.858;10.128;2023-05-10T01:10:46;14.40;99.90
6377;DHT22;3221;48.858;10.128;2023-05-10T01:13:23;14.30;99.90
6377;DHT22;3221;48.858;10.128;2023-05-10T01:15:52;14.40;99.90
6377;DHT22;3221;48.858;10.128;2023-05-10T01:18:20;14.30;99.90
6377;DHT22;3221;48.858;10.128;2023-05-10T01:21:01;14.40;99.90
6377;DHT22;3221;48.858;10.128;2023-05-10T01:32:22;14.20;99.90
6377;DHT22;3221;48.858;10.128;2023-05-10T01:37:50;14.20;99.90
6377;DHT22;3221;48.858;10.128;2023-05-10T01:40:35;14.20;99.90
6377;DHT22;3221;48.858;10.128;2023-05-10T01:43:07;14.30;99.90
6377;DHT22;3221;48.858;10.128;2023-05-10T01:45:59;14.40;99.90
6377;DHT22;3221;48.858;10.128;2023-05-10T01:48:28;14.30;99.90
6377;DHT22;3221;48.858;10.128;2023-05-10T01:50:56;14.30;99.90
6377;DHT22;3221;48.858;10.128;2023-05-10T01:53:25;14.20;99.90
6377;DHT22;3221;48.858;10.128;2023-05-10T01:55:55;14.20;99.90
6377;DHT22;3221;48.858;10.128;2023-05-10T01:58:27;14.10;99.90
6377;DHT22;3221;48.858;10.128;2023-05-10T02:00:55;14.10;99.90
6377;DHT22;3221;48.858;10.128;2023-05-10T02:03:24;14.20;99.90
6377;DHT22;3221;48.858;10.128;2023-05-10T02:05:54;14.00;99.90
6377;DHT22;3221;48.858;10.128;2023-05-10T02:08:22;14.20;99.90
6377;DHT22;3221;48.858;10.128;2023-05-10T02:10:52;14.20;99.90
6377;DHT22;3221;48.858;10.128;2023-05-10T02:13:21;14.10;99.90
6377;DHT22;3221;48.858;10.128;2023-05-10T02:15:51;14.10;99.90
6377;DHT22;3221;48.858;10.128;2023-05-10T02:18:18;14.00;99.90
6377;DHT22;3221;48.858;10.128;2023-05-10T02:20:46;14.00;99.90
6377;DHT22;3221;48.858;10.128;2023-05-10T02:23:17;14.10;99.90
6377;DHT22;3221;48.858;10.128;2023-05-10T02:25:44;14.00;99.90
6377;DHT22;3221;48.858;10.128;2023-05-10T02:28:14;13.90;99.90
6377;DHT22;3221;48.858;10.128;2023-05-10T02:30:42;13.90;99.90
6377;DHT22;3221;48.858;10.128;2023-05-10T02:33:11;13.90;99.90
6377;DHT22;3221;48.858;10.128;2023-05-10T02:35:38;13.80;99.90
6377;DHT22;3221;48.858;10.128;2023-05-10T02:38:06;13.80;99.90
6377;DHT22;3221;48.858;10.128;2023-05-10T02:40:35;13.80;99.90
6377;DHT22;3221;48.858;10.128;2023-05-10T02:43:04;13.70;99.90
6377;DHT22;3221;48.858;10.128;2023-05-10T02:45:34;13.70;99.90
6377;DHT22;3221;48.858;10.128;2023-05-10T02:48:02;13.60;99.90
6377;DHT22;3221;48.858;10.128;2023-05-10T02:50:30;13.60;99.90
6377;DHT22;3221;48.858;10.128;2023-05-10T02:53:06;13.70;99.90
6377;DHT22;3221;48.858;10.128;2023-05-10T02:55:38;13.60;99.90
6377;DHT22;3221;48.858;10.128;2023-05-10T02:58:06;13.60;99.90
6377;DHT22;3221;48.858;10.128;2023-05-10T03:00:33;13.60;99.90
6377;DHT22;3221;48.858;10.128;2023-05-10T03:03:00;13.60;99.90
6377;DHT22;3221;48.858;10.128;2023-05-10T03:05:28;13.60;99.90
6377;DHT22;3221;48.858;10.128;2023-05-10T03:07:59;13.50;99.90
6377;DHT22;3221;48.858;10.128;2023-05-10T03:10:29;13.50;99.90
6377;DHT22;3221;48.858;10.128;2023-05-10T03:15:33;13.40;99.90
6377;DHT22;3221;48.858;10.128;2023-05-10T03:18:12;13.40;99.90
6377;DHT22;3221;48.858;10.128;2023-05-10T03:20:43;13.30;99.90
6377;DHT22;3221;48.858;10.128;2023-05-10T03:25:59;13.30;99.90
6377;DHT22;3221;48.858;10.128;2023-05-10T03:28:27;13.30;99.90
6377;DHT22;3221;48.858;10.128;2023-05-10T03:30:55;13.20;99.90
6377;DHT22;3221;48.858;10.128;2023-05-10T03:33:23;13.30;99.90
6377;DHT22;3221;48.858;10.128;2023-05-10T03:35:50;13.30;99.90
6377;DHT22;3221;48.858;10.128;2023-05-10T03:38:17;13.40;99.90
6377;DHT22;3221;48.858;10.128;2023-05-10T03:40:45;13.30;99.90
6377;DHT22;3221;48.858;10.128;2023-05-10T03:43:12;13.30;99.90
6377;DHT22;3221;48.858;10.128;2023-05-10T03:45:39;13.20;99.90
6377;DHT22;3221;48.858;10.128;2023-05-10T03:48:06;13.30;99.90
6377;DHT22;3221;48.858;10.128;2023-05-10T03:50:33;13.20;99.90
6377;DHT22;3221;48.858;10.128;2023-05-10T03:53:00;13.30;99.90
6377;DHT22;3221;48.858;10.128;2023-05-10T03:55:27;13.30;99.90
6377;DHT22;3221;48.858;10.128;2023-05-10T03:57:55;13.10;99.90
6377;DHT22;3221;48.858;10.128;2023-05-10T04:00:24;13.20;99.90
6377;DHT22;3221;48.858;10.128;2023-05-10T04:02:53;13.20;99.90
6377;DHT22;3221;48.858;10.128;2023-05-10T04:05:20;13.10;99.90
6377;DHT22;3221;48.858;10.128;2023-05-10T04:07:47;13.10;99.90
6377;DHT22;3221;48.858;10.128;2023-05-10T04:10:15;13.20;99.90
6377;DHT22;3221;48.858;10.128;2023-05-10T04:12:43;13.00;99.90
6377;DHT22;3221;48.858;10.128;2023-05-10T04:15:10;13.20;99.90
6377;DHT22;3221;48.858;10.128;2023-05-10T04:17:37;13.00;99.90
6377;DHT22;3221;48.858;10.128;2023-05-10T04:20:04;13.00;99.90
6377;DHT22;3221;48.858;10.128;2023-05-10T04:22:32;13.00;99.90
6377;DHT22;3221;48.858;10.128;2023-05-10T04:24:59;13.10;99.90
6377;DHT22;3221;48.858;10.128;2023-05-10T04:27:25;13.00;99.90
6377;DHT22;3221;48.858;10.128;2023-05-10T04:29:53;13.10;99.90
6377;DHT22;3221;48.858;10.128;2023-05-10T04:32:19;13.10;99.90
6377;DHT22;3221;48.858;10.128;2023-05-10T04:34:47;13.00;99.90
6377;DHT22;3221;48.858;10.128;2023-05-10T04:37:14;13.00;99.90
6377;DHT22;3221;48.858;10.128;2023-05-10T04:39:40;12.90;99.90
6377;DHT22;3221;48.858;10.128;2023-05-10T04:42:08;13.00;99.90
6377;DHT22;3221;48.858;10.128;2023-05-10T04:44:35;12.90;99.90
6377;DHT22;3221;48.858;10.128;2023-05-10T04:47:03;13.00;99.90
6377;DHT22;3221;48.858;10.128;2023-05-10T04:49:30;13.00;99.90
6377;DHT22;3221;48.858;10.128;2023-05-10T04:51:56;12.90;99.90
6377;DHT22;3221;48.858;10.128;2023-05-10T04:54:23;13.10;99.90
6377;DHT22;3221;48.858;10.128;2023-05-10T04:56:50;12.90;99.90
6377;DHT22;3221;48.858;10.128;2023-05-10T04:59:18;12.90;99.90
6377;DHT22;3221;48.858;10.128;2023-05-10T05:01:44;12.90;99.90
6377;DHT22;3221;48.858;10.128;2023-05-10T05:04:12;12.90;99.90
6377;DHT22;3221;48.858;10.128;2023-05-10T05:06:38;12.90;99.90
6377;DHT22;3221;48.858;10.128;2023-05-10T05:09:05;13.00;99.90
6377;DHT22;3221;48.858;10.128;2023-05-10T05:11:32;13.00;99.90
6377;DHT22;3221;48.858;10.128;2023-05-10T05:13:59;13.00;99.90
6377;DHT22;3221;48.858;10.128;2023-05-10T05:16:26;12.90;99.90
6377;DHT22;3221;48.858;10.128;2023-05-10T05:18:53;12.90;99.90
6377;DHT22;3221;48.858;10.128;2023-05-10T05:21:20;13.00;99.90
6377;DHT22;3221;48.858;10.128;2023-05-10T05:23:47;12.90;99.90
6377;DHT22;3221;48.858;10.128;2023-05-10T05:26:14;13.00;99.90
6377;DHT22;3221;48.858;10.128;2023-05-10T05:28:42;13.00;99.90
6377;DHT22;3221;48.858;10.128;2023-05-10T05:31:08;13.00;99.90
6377;DHT22;3221;48.858;10.128;2023-05-10T05:33:36;12.90;99.90
6377;DHT22;3221;48.858;10.128;2023-05-10T05:36:04;12.90;99.90
6377;DHT22;3221;48.858;10.128;2023-05-10T05:38:32;13.00;99.90
6377;DHT22;3221;48.858;10.128;2023-05-10T05:40:59;12.90;99.90
6377;DHT22;3221;48.858;10.128;2023-05-10T05:43:26;12.90;99.90
6377;DHT22;3221;48.858;10.128;2023-05-10T05:45:53;12.90;99.90
6377;DHT22;3221;48.858;10.128;2023-05-10T05:48:24;12.90;99.90
6377;DHT22;3221;48.858;10.128;2023-05-10T05:50:54;13.00;99.90
6377;DHT22;3221;48.858;10.128;2023-05-10T05:53:22;12.90;99.90
6377;DHT22;3221;48.858;10.128;2023-05-10T05:55:57;13.00;99.90
6377;DHT22;3221;48.858;10.128;2023-05-10T05:58:25;13.00;99.90
6377;DHT22;3221;48.858;10.128;2023-05-10T06:00:52;12.80;99.90
6377;DHT22;3221;48.858;10.128;2023-05-10T06:03:20;12.90;99.90
6377;DHT22;3221;48.858;10.128;2023-05-10T06:05:47;12.90;99.90
6377;DHT22;3221;48.858;10.128;2023-05-10T06:08:14;13.00;99.90
6377;DHT22;3221;48.858;10.128;2023-05-10T06:10:40;12.90;99.90
6377;DHT22;3221;48.858;10.128;2023-05-10T06:13:07;12.90;99.90
6377;DHT22;3221;48.858;10.128;2023-05-10T06:15:34;12.90;99.90
6377;DHT22;3221;48.858;10.128;2023-05-10T06:18:01;12.90;99.90
6377;DHT22;3221;48.858;10.128;2023-05-10T06:20:28;13.00;99.90
6377;DHT22;3221;48.858;10.128;2023-05-10T06:22:55;12.90;99.90
6377;DHT22;3221;48.858;10.128;2023-05-10T06:25:22;12.90;99.90
6377;DHT22;3221;48.858;10.128;2023-05-10T06:27:49;12.90;99.90
6377;DHT22;3221;48.858;10.128;2023-05-10T06:30:19;13.00;99.90
6377;DHT22;3221;48.858;10.128;2023-05-10T06:32:46;12.90;99.90
6377;DHT22;3221;48.858;10.128;2023-05-10T06:35:13;13.00;99.90
6377;DHT22;3221;48.858;10.128;2023-05-10T06:37:41;12.90;99.90
6377;DHT22;3221;48.858;10.128;2023-05-10T06:40:08;12.90;99.90
6377;DHT22;3221;48.858;10.128;2023-05-10T06:42:36;13.00;99.90
6377;DHT22;3221;48.858;10.128;2023-05-10T06:45:03;13.00;99.90
6377;DHT22;3221;48.858;10.128;2023-05-10T06:47:30;13.00;99.90
6377;DHT22;3221;48.858;10.128;2023-05-10T06:49:57;13.00;99.90
6377;DHT22;3221;48.858;10.128;2023-05-10T06:52:24;13.00;99.90
6377;DHT22;3221;48.858;10.128;2023-05-10T06:54:51;12.90;99.90
6377;DHT22;3221;48.858;10.128;2023-05-10T06:57:18;12.90;99.90
6377;DHT22;3221;48.858;10.128;2023-05-10T07:00:00;13.10;99.90
6377;DHT22;3221;48.858;10.128;2023-05-10T07:02:27;13.00;99.90
6377;DHT22;3221;48.858;10.128;2023-05-10T07:04:55;13.00;99.90
6377;DHT22;3221;48.858;10.128;2023-05-10T07:07:22;13.00;99.90
6377;DHT22;3221;48.858;10.128;2023-05-10T07:09:48;13.00;99.90
6377;DHT22;3221;48.858;10.128;2023-05-10T07:12:16;12.90;99.90
6377;DHT22;3221;48.858;10.128;2023-05-10T07:14:43;12.90;99.90
6377;DHT22;3221;48.858;10.128;2023-05-10T07:17:10;12.80;99.90
6377;DHT22;3221;48.858;10.128;2023-05-10T07:19:37;12.80;99.90
6377;DHT22;3221;48.858;10.128;2023-05-10T07:22:04;12.90;99.90
6377;DHT22;3221;48.858;10.128;2023-05-10T07:24:32;13.00;99.90
6377;DHT22;3221;48.858;10.128;2023-05-10T07:26:59;13.00;99.90
6377;DHT22;3221;48.858;10.128;2023-05-10T07:29:26;12.90;99.90
6377;DHT22;3221;48.858;10.128;2023-05-10T07:31:53;13.00;99.90
6377;DHT22;3221;48.858;10.128;2023-05-10T07:34:24;13.00;99.90
6377;DHT22;3221;48.858;10.128;2023-05-10T07:36:52;13.20;99.90
6377;DHT22;3221;48.858;10.128;2023-05-10T07:39:19;13.00;99.90
6377;DHT22;3221;48.858;10.128;2023-05-10T07:41:54;13.20;99.90
6377;DHT22;3221;48.858;10.128;2023-05-10T07:44:21;13.10;99.90
6377;DHT22;3221;48.858;10.128;2023-05-10T07:46:48;13.00;99.90
6377;DHT22;3221;48.858;10.128;2023-05-10T07:49:15;13.00;99.90
6377;DHT22;3221;48.858;10.128;2023-05-10T07:51:43;13.00;99.90
6377;DHT22;3221;48.858;10.128;2023-05-10T07:54:10;13.10;99.90
6377;DHT22;3221;48.858;10.128;2023-05-10T07:56:37;13.10;99.90
6377;DHT22;3221;48.858;10.128;2023-05-10T07:59:04;13.00;99.90
6377;DHT22;3221;48.858;10.128;2023-05-10T08:01:34;13.00;99.90
6377;DHT22;3221;48.858;10.128;2023-05-10T08:04:01;13.10;99.90
6377;DHT22;3221;48.858;10.128;2023-05-10T08:06:28;13.40;99.90
6377;DHT22;3221;48.858;10.128;2023-05-10T08:08:56;13.30;99.90
6377;DHT22;3221;48.858;10.128;2023-05-10T08:11:23;13.20;99.90
6377;DHT22;3221;48.858;10.128;2023-05-10T08:13:50;13.20;99.90
6377;DHT22;3221;48.858;10.128;2023-05-10T08:16:17;13.30;99.90
6377;DHT22;3221;48.858;10.128;2023-05-10T08:18:45;13.20;99.90
6377;DHT22;3221;48.858;10.128;2023-05-10T08:21:14;13.30;99.90
6377;DHT22;3221;48.858;10.128;2023-05-10T08:23:41;13.30;99.90
6377;DHT22;3221;48.858;10.128;2023-05-10T08:26:10;13.30;99.90
6377;DHT22;3221;48.858;10.128;2023-05-10T08:28:37;13.40;99.90
6377;DHT22;3221;48.858;10.128;2023-05-10T08:31:04;13.20;99.90
6377;DHT22;3221;48.858;10.128;2023-05-10T08:33:32;13.30;99.90
6377;DHT22;3221;48.858;10.128;2023-05-10T08:35:58;13.20;99.90
6377;DHT22;3221;48.858;10.128;2023-05-10T08:38:25;13.40;99.90
6377;DHT22;3221;48.858;10.128;2023-05-10T08:40:55;13.30;99.90
6377;DHT22;3221;48.858;10.128;2023-05-10T08:43:27;13.20;99.90
6377;DHT22;3221;48.858;10.128;2023-05-10T08:45:56;13.20;99.90
6377;DHT22;3221;48.858;10.128;2023-05-10T08:48:24;13.20;99.90
6377;DHT22;3221;48.858;10.128;2023-05-10T08:50:53;13.30;99.90
6377;DHT22;3221;48.858;10.128;2023-05-10T08:53:21;13.20;99.90
6377;DHT22;3221;48.858;10.128;2023-05-10T08:55:50;13.20;99.90
6377;DHT22;3221;48.858;10.128;2023-05-10T08:58:17;13.10;99.90
6377;DHT22;3221;48.858;10.128;2023-05-10T09:00:48;13.20;99.90
6377;DHT22;3221;48.858;10.128;2023-05-10T09:03:15;13.30;99.90
6377;DHT22;3221;48.858;10.128;2023-05-10T09:05:42;13.30;99.90
6377;DHT22;3221;48.858;10.128;2023-05-10T09:08:11;13.30;99.90
6377;DHT22;3221;48.858;10.128;2023-05-10T09:10:39;13.30;99.90
6377;DHT22;3221;48.858;10.128;2023-05-10T09:13:10;13.40;99.90
6377;DHT22;3221;48.858;10.128;2023-05-10T09:15:38;13.30;99.90
6377;DHT22;3221;48.858;10.128;2023-05-10T09:18:04;13.30;99.90
6377;DHT22;3221;48.858;10.128;2023-05-10T09:20:32;13.60;99.90
6377;DHT22;3221;48.858;10.128;2023-05-10T09:22:58;13.40;99.90
6377;DHT22;3221;48.858;10.128;2023-05-10T09:25:25;13.50;99.90
6377;DHT22;3221;48.858;10.128;2023-05-10T09:27:52;13.30;99.90
6377;DHT22;3221;48.858;10.128;2023-05-10T09:30:27;13.40;99.90
6377;DHT22;3221;48.858;10.128;2023-05-10T09:32:55;13.20;99.90
6377;DHT22;3221;48.858;10.128;2023-05-10T09:35:24;13.20;99.90
6377;DHT22;3221;48.858;10.128;2023-05-10T09:37:57;13.10;99.90
6377;DHT22;3221;48.858;10.128;2023-05-10T09:40:26;13.20;99.90
6377;DHT22;3221;48.858;10.128;2023-05-10T09:42:57;13.20;99.90
6377;DHT22;3221;48.858;10.128;2023-05-10T09:45:26;13.20;99.90
6377;DHT22;3221;48.858;10.128;2023-05-10T09:47:53;13.30;99.90
6377;DHT22;3221;48.858;10.128;2023-05-10T09:50:21;13.20;99.90
6377;DHT22;3221;48.858;10.128;2023-05-10T09:52:49;13.20;99.90
6377;DHT22;3221;48.858;10.128;2023-05-10T09:55:21;13.20;99.90
6377;DHT22;3221;48.858;10.128;2023-05-10T09:57:50;13.30;99.90
6377;DHT22;3221;48.858;10.128;2023-05-10T10:00:24;13.30;99.90
6377;DHT22;3221;48.858;10.128;2023-05-10T10:02:58;13.30;99.90
6377;DHT22;3221;48.858;10.128;2023-05-10T10:05:33;13.30;99.90
6377;DHT22;3221;48.858;10.128;2023-05-10T10:08:03;13.40;99.90
6377;DHT22;3221;48.858;10.128;2023-05-10T10:10:32;13.50;99.90
6377;DHT22;3221;48.858;10.128;2023-05-10T10:13:00;13.50;99.90
6377;DHT22;3221;48.858;10.128;2023-05-10T10:15:27;13.40;99.90
6377;DHT22;3221;48.858;10.128;2023-05-10T10:17:54;13.50;99.90
6377;DHT22;3221;48.858;10.128;2023-05-10T10:20:22;13.50;99.90
6377;DHT22;3221;48.858;10.128;2023-05-10T10:22:49;13.50;99.90
6377;DHT22;3221;48.858;10.128;2023-05-10T10:25:17;13.40;99.90
6377;DHT22;3221;48.858;10.128;2023-05-10T10:30:42;13.40;99.90
6377;DHT22;3221;48.858;10.128;2023-05-10T10:36:08;13.40;99.90
6377;DHT22;3221;48.858;10.128;2023-05-10T10:38:55;13.40;99.90
6377;DHT22;3221;48.858;10.128;2023-05-10T10:41:34;13.40;99.90
6377;DHT22;3221;48.858;10.128;2023-05-10T10:52:24;13.70;99.90
6377;DHT22;3221;48.858;10.128;2023-05-10T10:55:13;13.70;99.90
6377;DHT22;3221;48.858;10.128;2023-05-10T11:00:33;13.60;99.90
6377;DHT22;3221;48.858;10.128;2023-05-10T11:03:08;13.60;99.90
6377;DHT22;3221;48.858;10.128;2023-05-10T11:08:29;13.70;99.90
6377;DHT22;3221;48.858;10.128;2023-05-10T11:16:30;13.60;99.90
6377;DHT22;3221;48.858;10.128;2023-05-10T11:19:09;13.70;99.90
6377;DHT22;3221;48.858;10.128;2023-05-10T11:22:13;13.70;99.90
6377;DHT22;3221;48.858;10.128;2023-05-10T11:24:40;13.80;99.90
6377;DHT22;3221;48.858;10.128;2023-05-10T11:27:22;13.80;99.90
6377;DHT22;3221;48.858;10.128;2023-05-10T11:29:52;13.80;99.90
6377;DHT22;3221;48.858;10.128;2023-05-10T11:32:19;13.90;99.90
6377;DHT22;3221;48.858;10.128;2023-05-10T11:34:47;13.70;99.90
6377;DHT22;3221;48.858;10.128;2023-05-10T11:37:15;13.80;99.90
6377;DHT22;3221;48.858;10.128;2023-05-10T11:39:45;13.80;99.90
6377;DHT22;3221;48.858;10.128;2023-05-10T11:42:14;13.90;99.90
6377;DHT22;3221;48.858;10.128;2023-05-10T11:44:41;13.70;99.90
6377;DHT22;3221;48.858;10.128;2023-05-10T11:47:08;13.80;99.90
6377;DHT22;3221;48.858;10.128;2023-05-10T11:49:35;13.70;99.90
6377;DHT22;3221;48.858;10.128;2023-05-10T11:52:06;13.80;99.90
6377;DHT22;3221;48.858;10.128;2023-05-10T11:54:33;13.80;99.90
6377;DHT22;3221;48.858;10.128;2023-05-10T11:57:03;13.80;99.90
6377;DHT22;3221;48.858;10.128;2023-05-10T11:59:30;13.80;99.90
6377;DHT22;3221;48.858;10.128;2023-05-10T12:01:57;13.80;99.90
6377;DHT22;3221;48.858;10.128;2023-05-10T12:04:25;13.80;99.90
6377;DHT22;3221;48.858;10.128;2023-05-10T12:06:52;13.80;99.90
6377;DHT22;3221;48.858;10.128;2023-05-10T12:09:19;13.80;99.90
6377;DHT22;3221;48.858;10.128;2023-05-10T12:12:06;13.70;99.90
6377;DHT22;3221;48.858;10.128;2023-05-10T12:14:36;13.90;99.90
6377;DHT22;3221;48.858;10.128;2023-05-10T12:17:03;13.80;99.90
6377;DHT22;3221;48.858;10.128;2023-05-10T12:19:39;14.00;99.90
6377;DHT22;3221;48.858;10.128;2023-05-10T12:22:06;14.00;99.90
6377;DHT22;3221;48.858;10.128;2023-05-10T12:24:37;13.90;99.90
6377;DHT22;3221;48.858;10.128;2023-05-10T12:27:05;13.90;99.90
6377;DHT22;3221;48.858;10.128;2023-05-10T12:29:34;14.00;99.90
6377;DHT22;3221;48.858;10.128;2023-05-10T12:32:02;13.90;99.90
6377;DHT22;3221;48.858;10.128;2023-05-10T12:34:34;13.90;99.90
6377;DHT22;3221;48.858;10.128;2023-05-10T12:37:03;14.00;99.90
6377;DHT22;3221;48.858;10.128;2023-05-10T12:39:40;14.00;99.90
6377;DHT22;3221;48.858;10.128;2023-05-10T12:42:08;14.00;99.90
6377;DHT22;3221;48.858;10.128;2023-05-10T12:44:35;13.80;99.90
6377;DHT22;3221;48.858;10.128;2023-05-10T12:47:01;14.00;99.90
6377;DHT22;3221;48.858;10.128;2023-05-10T12:49:28;13.80;99.90
6377;DHT22;3221;48.858;10.128;2023-05-10T12:51:55;13.90;99.90
6377;DHT22;3221;48.858;10.128;2023-05-10T12:54:22;13.70;99.90
6377;DHT22;3221;48.858;10.128;2023-05-10T12:56:49;13.60;99.90
6377;DHT22;3221;48.858;10.128;2023-05-10T12:59:16;13.60;99.90
6377;DHT22;3221;48.858;10.128;2023-05-10T13:01:43;13.60;99.90
6377;DHT22;3221;48.858;10.128;2023-05-10T13:04:10;13.50;99.90
6377;DHT22;3221;48.858;10.128;2023-05-10T13:06:37;13.50;99.90
6377;DHT22;3221;48.858;10.128;2023-05-10T13:09:03;13.40;99.90
6377;DHT22;3221;48.858;10.128;2023-05-10T13:11:31;13.50;99.90
6377;DHT22;3221;48.858;10.128;2023-05-10T13:13:58;13.40;99.90
6377;DHT22;3221;48.858;10.128;2023-05-10T13:16:25;13.40;99.90
6377;DHT22;3221;48.858;10.128;2023-05-10T13:18:52;13.40;99.90
6377;DHT22;3221;48.858;10.128;2023-05-10T13:21:19;13.30;99.90
6377;DHT22;3221;48.858;10.128;2023-05-10T13:23:46;13.30;99.90
6377;DHT22;3221;48.858;10.128;2023-05-10T13:26:13;13.50;99.90
6377;DHT22;3221;48.858;10.128;2023-05-10T13:28:40;13.40;99.90
6377;DHT22;3221;48.858;10.128;2023-05-10T13:31:07;13.50;99.90
6377;DHT22;3221;48.858;10.128;2023-05-10T13:33:34;13.50;99.90
6377;DHT22;3221;48.858;10.128;2023-05-10T13:36:01;13.40;99.90
6377;DHT22;3221;48.858;10.128;2023-05-10T13:38:28;13.40;99.90
6377;DHT22;3221;48.858;10.128;2023-05-10T13:40:55;13.30;99.90
6377;DHT22;3221;48.858;10.128;2023-05-10T13:43:22;13.30;99.90
6377;DHT22;3221;48.858;10.128;2023-05-10T13:45:49;13.40;99.90
6377;DHT22;3221;48.858;10.128;2023-05-10T13:48:16;13.40;99.90
6377;DHT22;3221;48.858;10.128;2023-05-10T13:50:43;13.40;99.90
6377;DHT22;3221;48.858;10.128;2023-05-10T13:53:10;13.30;99.90
6377;DHT22;3221;48.858;10.128;2023-05-10T13:55:37;13.20;99.90
6377;DHT22;3221;48.858;10.128;2023-05-10T13:58:03;13.20;99.90
6377;DHT22;3221;48.858;10.128;2023-05-10T14:00:30;13.30;99.90
6377;DHT22;3221;48.858;10.128;2023-05-10T14:02:58;13.30;99.90
6377;DHT22;3221;48.858;10.128;2023-05-10T14:05:25;13.20;99.90
6377;DHT22;3221;48.858;10.128;2023-05-10T14:07:53;13.20;99.90
6377;DHT22;3221;48.858;10.128;2023-05-10T14:10:20;13.40;99.90
6377;DHT22;3221;48.858;10.128;2023-05-10T14:12:47;13.30;99.90
6377;DHT22;3221;48.858;10.128;2023-05-10T14:15:14;13.30;99.90
6377;DHT22;3221;48.858;10.128;2023-05-10T14:17:41;13.30;99.90
6377;DHT22;3221;48.858;10.128;2023-05-10T14:20:08;13.20;99.90
6377;DHT22;3221;48.858;10.128;2023-05-10T14:22:35;13.30;99.90
6377;DHT22;3221;48.858;10.128;2023-05-10T14:25:03;13.20;99.90
6377;DHT22;3221;48.858;10.128;2023-05-10T14:27:29;13.30;99.90
6377;DHT22;3221;48.858;10.128;2023-05-10T14:29:57;13.30;99.90
6377;DHT22;3221;48.858;10.128;2023-05-10T14:32:23;13.30;99.90
6377;DHT22;3221;48.858;10.128;2023-05-10T14:34:50;13.30;99.90
6377;DHT22;3221;48.858;10.128;2023-05-10T14:37:17;13.20;99.90
6377;DHT22;3221;48.858;10.128;2023-05-10T14:39:44;13.30;99.90
6377;DHT22;3221;48.858;10.128;2023-05-10T14:42:11;13.30;99.90
6377;DHT22;3221;48.858;10.128;2023-05-10T14:44:38;13.20;99.90
6377;DHT22;3221;48.858;10.128;2023-05-10T14:47:05;13.30;99.90
6377;DHT22;3221;48.858;10.128;2023-05-10T14:49:32;13.40;99.90
6377;DHT22;3221;48.858;10.128;2023-05-10T14:51:59;13.30;99.90
6377;DHT22;3221;48.858;10.128;2023-05-10T14:54:25;13.20;99.90
6377;DHT22;3221;48.858;10.128;2023-05-10T14:56:52;13.20;99.90
6377;DHT22;3221;48.858;10.128;2023-05-10T14:59:20;13.20;99.90
6377;DHT22;3221;48.858;10.128;2023-05-10T15:01:47;13.30;99.90
6377;DHT22;3221;48.858;10.128;2023-05-10T15:04:14;13.20;99.90
6377;DHT22;3221;48.858;10.128;2023-05-10T15:06:43;13.20;99.90
6377;DHT22;3221;48.858;10.128;2023-05-10T15:09:10;13.20;99.90
6377;DHT22;3221;48.858;10.128;2023-05-10T15:11:37;13.20;99.90
6377;DHT22;3221;48.858;10.128;2023-05-10T15:14:04;13.30;99.90
6377;DHT22;3221;48.858;10.128;2023-05-10T15:16:30;13.10;99.90
6377;DHT22;3221;48.858;10.128;2023-05-10T15:19:01;13.20;99.90
6377;DHT22;3221;48.858;10.128;2023-05-10T15:21:28;13.10;99.90
6377;DHT22;3221;48.858;10.128;2023-05-10T15:23:55;13.10;99.90
6377;DHT22;3221;48.858;10.128;2023-05-10T15:26:22;13.10;99.90
6377;DHT22;3221;48.858;10.128;2023-05-10T15:28:50;13.20;99.90
6377;DHT22;3221;48.858;10.128;2023-05-10T15:31:17;13.20;99.90
6377;DHT22;3221;48.858;10.128;2023-05-10T15:33:44;13.00;99.90
6377;DHT22;3221;48.858;10.128;2023-05-10T15:36:11;13.10;99.90
6377;DHT22;3221;48.858;10.128;2023-05-10T15:38:37;13.20;99.90
6377;DHT22;3221;48.858;10.128;2023-05-10T15:41:04;13.10;99.90
6377;DHT22;3221;48.858;10.128;2023-05-10T15:43:31;13.20;99.90
6377;DHT22;3221;48.858;10.128;2023-05-10T15:45:58;13.40;99.90
6377;DHT22;3221;48.858;10.128;2023-05-10T15:48:25;13.30;99.90
6377;DHT22;3221;48.858;10.128;2023-05-10T15:50:52;13.20;99.90
6377;DHT22;3221;48.858;10.128;2023-05-10T15:53:19;13.10;99.90
6377;DHT22;3221;48.858;10.128;2023-05-10T15:55:46;13.10;99.90
6377;DHT22;3221;48.858;10.128;2023-05-10T15:58:12;13.10;99.90
6377;DHT22;3221;48.858;10.128;2023-05-10T16:00:39;13.10;99.90
6377;DHT22;3221;48.858;10.128;2023-05-10T16:03:07;13.10;99.90
6377;DHT22;3221;48.858;10.128;2023-05-10T16:05:34;13.10;99.90
6377;DHT22;3221;48.858;10.128;2023-05-10T16:08:01;13.20;99.90
6377;DHT22;3221;48.858;10.128;2023-05-10T16:10:31;13.10;99.90
6377;DHT22;3221;48.858;10.128;2023-05-10T16:12:58;13.30;99.90
6377;DHT22;3221;48.858;10.128;2023-05-10T16:15:26;13.20;99.90
6377;DHT22;3221;48.858;10.128;2023-05-10T16:17:53;13.30;99.90
6377;DHT22;3221;48.858;10.128;2023-05-10T16:20:20;13.20;99.90
6377;DHT22;3221;48.858;10.128;2023-05-10T16:22:47;13.30;99.90
6377;DHT22;3221;48.858;10.128;2023-05-10T16:25:14;13.20;99.90
6377;DHT22;3221;48.858;10.128;2023-05-10T16:27:41;13.20;99.90
6377;DHT22;3221;48.858;10.128;2023-05-10T16:30:09;13.20;99.90
6377;DHT22;3221;48.858;10.128;2023-05-10T16:32:35;13.30;99.90
6377;DHT22;3221;48.858;10.128;2023-05-10T16:35:03;13.30;99.90